createdAt,value
2022-09-09T00:01:29.106Z,99.90
2022-09-09T00:04:22.720Z,99.90
2022-09-09T00:07:17.324Z,99.90
2022-09-09T00:09:44.047Z,99.90
2022-09-09T00:12:16.491Z,99.90
2022-09-09T00:14:55.196Z,99.90
2022-09-09T00:17:28.081Z,99.90
2022-09-09T00:20:02.703Z,99.90
2022-09-09T00:22:34.309Z,99.90
2022-09-09T00:25:12.686Z,99.90
2022-09-09T00:27:46.463Z,99.90
2022-09-09T00:30:15.699Z,99.90
2022-09-09T00:32:42.710Z,99.90
2022-09-09T00:35:35.232Z,99.90
2022-09-09T00:38:10.988Z,99.90
2022-09-09T00:40:50.000Z,99.90
2022-09-09T00:43:26.575Z,99.90
2022-09-09T00:45:53.367Z,99.90
2022-09-09T00:48:27.041Z,99.90
2022-09-09T00:50:59.359Z,99.90
2022-09-09T00:54:06.401Z,99.90
2022-09-09T00:56:43.311Z,99.90
2022-09-09T00:59:55.277Z,99.90
2022-09-09T01:02:48.450Z,99.90
2022-09-09T01:05:31.995Z,99.90
2022-09-09T01:08:03.057Z,99.90
2022-09-09T01:10:52.040Z,99.90
2022-09-09T01:13:34.734Z,99.90
2022-09-09T01:16:09.144Z,99.90
2022-09-09T01:18:45.257Z,99.90
2022-09-09T01:21:45.727Z,99.90
2022-09-09T01:24:39.455Z,99.90
2022-09-09T01:27:08.763Z,99.90
2022-09-09T01:29:35.529Z,99.90
2022-09-09T01:32:41.200Z,99.90
2022-09-09T01:35:33.903Z,99.90
2022-09-09T01:38:00.995Z,99.90
2022-09-09T01:40:45.755Z,99.90
2022-09-09T01:43:13.495Z,99.90
2022-09-09T01:45:43.654Z,99.90
2022-09-09T01:48:10.506Z,99.90
2022-09-09T01:50:37.216Z,99.90
2022-09-09T01:53:04.412Z,99.90
2022-09-09T01:55:49.951Z,99.90
2022-09-09T01:58:31.774Z,99.90
2022-09-09T02:01:24.092Z,99.90
2022-09-09T02:03:55.166Z,99.90
2022-09-09T02:06:35.759Z,99.90
2022-09-09T02:09:07.296Z,99.90
2022-09-09T02:11:34.773Z,99.90
2022-09-09T02:14:09.385Z,99.90
2022-09-09T02:16:45.495Z,99.90
2022-09-09T02:19:24.896Z,99.90
2022-09-09T02:21:54.483Z,99.90
2022-09-09T02:24:22.322Z,99.90
2022-09-09T02:26:53.304Z,99.90
2022-09-09T02:29:27.743Z,99.90
2022-09-09T02:31:58.441Z,99.90
2022-09-09T02:34:28.780Z,99.90
2022-09-09T02:36:58.298Z,99.90
2022-09-09T02:39:25.025Z,99.90
2022-09-09T02:41:51.704Z,99.90
2022-09-09T02:44:19.612Z,99.90
2022-09-09T02:47:17.852Z,99.90
2022-09-09T02:49:51.247Z,99.90
2022-09-09T02:52:52.225Z,99.90
2022-09-09T02:55:29.789Z,99.90
2022-09-09T02:57:57.788Z,99.90
2022-09-09T03:00:29.005Z,99.90
2022-09-09T03:02:56.207Z,99.90
2022-09-09T03:05:23.333Z,99.90
2022-09-09T03:07:51.543Z,99.90
2022-09-09T03:10:18.592Z,99.90
2022-09-09T03:12:45.352Z,99.90
2022-09-09T03:15:12.270Z,99.90
2022-09-09T03:17:39.080Z,99.90
2022-09-09T03:20:06.525Z,99.90
2022-09-09T03:22:33.578Z,99.90
2022-09-09T03:25:00.335Z,99.90
2022-09-09T03:27:27.152Z,99.90
2022-09-09T03:29:53.930Z,99.90
2022-09-09T03:32:23.366Z,99.90
2022-09-09T03:34:53.139Z,99.90
2022-09-09T03:37:20.925Z,99.90
2022-09-09T03:39:47.658Z,99.90
2022-09-09T03:42:15.578Z,99.90
2022-09-09T03:44:43.159Z,99.90
2022-09-09T03:47:09.861Z,99.90
2022-09-09T03:49:36.571Z,99.90
2022-09-09T03:52:03.355Z,99.90
2022-09-09T03:54:30.086Z,99.90
2022-09-09T03:56:56.781Z,99.90
2022-09-09T03:59:24.061Z,99.90
2022-09-09T04:01:50.814Z,99.90
2022-09-09T04:04:17.614Z,99.90
2022-09-09T04:06:44.246Z,99.90
2022-09-09T04:09:10.993Z,99.90
2022-09-09T04:11:38.347Z,99.90
2022-09-09T04:14:07.140Z,99.90
2022-09-09T04:16:35.039Z,99.90
2022-09-09T04:19:02.395Z,99.90
2022-09-09T04:21:29.053Z,99.90
2022-09-09T04:23:55.836Z,99.90
2022-09-09T04:26:22.806Z,99.90
2022-09-09T04:28:49.562Z,99.90
2022-09-09T04:31:22.623Z,99.90
2022-09-09T04:33:50.419Z,99.90
2022-09-09T04:36:17.551Z,99.90
2022-09-09T04:38:45.453Z,99.90
2022-09-09T04:41:12.801Z,99.90
2022-09-09T04:43:40.503Z,99.90
2022-09-09T04:46:07.687Z,99.90
2022-09-09T04:48:34.939Z,99.90
2022-09-09T04:51:05.698Z,99.90
2022-09-09T04:53:34.973Z,99.90
2022-09-09T04:56:09.379Z,99.90
2022-09-09T04:58:37.113Z,99.90
2022-09-09T05:01:05.922Z,99.90
2022-09-09T05:03:33.097Z,99.90
2022-09-09T05:06:14.255Z,99.90
2022-09-09T05:08:42.292Z,99.90
2022-09-09T05:11:29.402Z,99.90
2022-09-09T05:13:57.543Z,99.90
2022-09-09T05:16:24.767Z,99.90
2022-09-09T05:18:52.291Z,99.90
2022-09-09T05:21:20.935Z,99.90
2022-09-09T05:23:48.383Z,99.90
2022-09-09T05:26:18.314Z,99.90
2022-09-09T05:28:45.693Z,99.90
2022-09-09T05:31:16.066Z,99.90
2022-09-09T05:33:47.127Z,99.90
2022-09-09T05:36:16.247Z,99.90
2022-09-09T05:38:43.636Z,99.90
2022-09-09T05:41:12.238Z,99.90
2022-09-09T05:43:39.914Z,99.90
2022-09-09T05:46:11.831Z,99.90
2022-09-09T05:48:40.712Z,99.90
2022-09-09T05:51:10.805Z,99.90
2022-09-09T05:53:37.925Z,99.90
2022-09-09T05:56:06.795Z,99.90
2022-09-09T05:58:34.761Z,99.90
2022-09-09T06:01:13.309Z,99.90
2022-09-09T06:03:41.568Z,99.90
2022-09-09T06:06:12.086Z,99.90
2022-09-09T06:08:40.998Z,99.90
2022-09-09T06:11:25.648Z,99.90
2022-09-09T06:13:54.931Z,99.90
2022-09-09T06:16:25.898Z,99.90
2022-09-09T06:18:55.327Z,99.90
2022-09-09T06:21:24.942Z,99.90
2022-09-09T06:24:00.216Z,99.90
2022-09-09T06:26:35.872Z,99.90
2022-09-09T06:29:04.971Z,99.90
2022-09-09T06:31:35.417Z,99.90
2022-09-09T06:34:03.167Z,99.90
2022-09-09T06:36:35.475Z,99.90
2022-09-09T06:39:02.558Z,99.90
2022-09-09T06:41:31.341Z,99.90
2022-09-09T06:43:58.068Z,99.90
2022-09-09T06:46:30.258Z,99.90
2022-09-09T06:48:58.423Z,99.90
2022-09-09T06:51:30.395Z,99.90
2022-09-09T06:53:59.757Z,99.90
2022-09-09T06:56:31.849Z,99.90
2022-09-09T06:59:02.429Z,99.90
2022-09-09T07:01:34.169Z,99.90
2022-09-09T07:04:01.686Z,99.90
2022-09-09T07:06:37.168Z,99.90
2022-09-09T07:09:06.886Z,99.90
2022-09-09T07:11:38.480Z,99.90
2022-09-09T07:14:05.224Z,99.90
2022-09-09T07:16:34.823Z,99.90
2022-09-09T07:19:01.598Z,99.90
2022-09-09T07:21:30.515Z,99.90
2022-09-09T07:23:58.202Z,99.90
2022-09-09T07:26:28.613Z,99.90
2022-09-09T07:28:57.416Z,99.90
2022-09-09T07:31:27.282Z,99.90
2022-09-09T07:33:54.473Z,99.90
2022-09-09T07:36:32.527Z,99.90
2022-09-09T07:39:10.065Z,99.90
2022-09-09T07:41:45.543Z,99.90
2022-09-09T07:44:15.097Z,99.90
2022-09-09T07:46:42.605Z,99.90
2022-09-09T07:49:10.873Z,99.90
2022-09-09T07:51:39.862Z,99.90
2022-09-09T07:54:10.408Z,99.90
2022-09-09T07:56:40.226Z,99.90
2022-09-09T07:59:08.066Z,99.90
2022-09-09T08:01:40.295Z,99.90
2022-09-09T08:04:19.149Z,99.90
2022-09-09T08:06:53.393Z,99.90
2022-09-09T08:09:21.581Z,99.90
2022-09-09T08:11:49.287Z,99.90
2022-09-09T08:14:16.047Z,99.90
2022-09-09T08:16:48.630Z,99.90
2022-09-09T08:19:18.775Z,99.90
2022-09-09T08:21:45.593Z,99.90
2022-09-09T08:24:14.851Z,99.90
2022-09-09T08:26:44.285Z,99.90
2022-09-09T08:29:13.016Z,99.90
2022-09-09T08:31:52.164Z,99.90
2022-09-09T08:34:21.053Z,99.90
2022-09-09T08:36:49.786Z,99.90
2022-09-09T08:39:19.290Z,99.90
2022-09-09T08:42:23.355Z,99.90
2022-09-09T08:45:25.723Z,99.90
2022-09-09T08:48:14.213Z,99.90
2022-09-09T08:50:42.712Z,99.90
2022-09-09T08:53:09.425Z,99.90
2022-09-09T08:55:49.669Z,99.90
2022-09-09T08:58:30.573Z,99.90
2022-09-09T09:01:09.573Z,99.90
2022-09-09T09:04:01.514Z,99.90
2022-09-09T09:06:37.653Z,99.90
2022-09-09T09:09:23.212Z,99.90
2022-09-09T09:11:55.296Z,99.90
2022-09-09T09:14:24.800Z,99.90
2022-09-09T09:17:07.463Z,99.90
2022-09-09T09:19:36.340Z,99.90
2022-09-09T09:22:14.593Z,99.90
2022-09-09T09:24:46.429Z,99.90
2022-09-09T09:27:16.135Z,99.90
2022-09-09T09:30:03.772Z,99.90
2022-09-09T09:32:35.937Z,99.90
2022-09-09T09:35:10.883Z,99.90
2022-09-09T09:37:37.698Z,99.90
2022-09-09T09:40:16.713Z,99.90
2022-09-09T09:42:55.503Z,99.90
2022-09-09T09:46:06.816Z,99.90
2022-09-09T09:48:36.087Z,99.90
2022-09-09T09:51:13.360Z,99.90
2022-09-09T09:53:40.533Z,99.90
2022-09-09T09:56:11.377Z,99.90
2022-09-09T09:58:47.181Z,99.90
2022-09-09T10:01:28.139Z,99.90
2022-09-09T10:04:17.486Z,99.90
2022-09-09T10:06:44.190Z,99.90
2022-09-09T10:09:27.857Z,99.90
2022-09-09T10:12:31.604Z,99.90
2022-09-09T10:15:20.176Z,99.90
2022-09-09T10:18:21.017Z,99.90
2022-09-09T10:20:59.338Z,99.90
2022-09-09T10:23:55.992Z,99.90
2022-09-09T10:26:50.171Z,99.80
2022-09-09T10:29:35.705Z,99.90
2022-09-09T10:32:05.343Z,99.90
2022-09-09T10:34:53.392Z,99.90
2022-09-09T10:37:30.975Z,97.20
2022-09-09T10:40:34.478Z,97.10
2022-09-09T10:43:29.338Z,98.30
2022-09-09T10:46:30.677Z,96.20
2022-09-09T10:49:23.180Z,99.90
2022-09-09T10:52:16.339Z,99.00
2022-09-09T10:55:10.131Z,99.10
2022-09-09T10:57:53.201Z,99.20
2022-09-09T11:00:25.545Z,98.50
2022-09-09T11:03:00.245Z,99.90
2022-09-09T11:05:35.856Z,99.60
2022-09-09T11:08:09.461Z,95.50
2022-09-09T11:10:56.222Z,93.10
2022-09-09T11:13:37.221Z,91.90
2022-09-09T11:16:35.758Z,91.30
2022-09-09T11:19:22.284Z,91.80
2022-09-09T11:21:50.857Z,91.60
2022-09-09T11:24:36.249Z,91.50
2022-09-09T11:27:18.530Z,94.50
2022-09-09T11:30:31.942Z,93.00
2022-09-09T11:33:41.870Z,94.90
2022-09-09T11:36:17.622Z,90.50
2022-09-09T11:38:52.398Z,93.30
2022-09-09T11:41:21.963Z,89.20
2022-09-09T11:43:53.187Z,90.10
2022-09-09T11:46:36.750Z,80.90
2022-09-09T11:49:06.315Z,82.40
2022-09-09T11:51:36.351Z,82.20
2022-09-09T11:54:30.405Z,81.40
2022-09-09T11:56:57.875Z,86.00
2022-09-09T11:59:34.110Z,83.30
2022-09-09T12:02:25.763Z,86.60
2022-09-09T12:04:57.252Z,85.00
2022-09-09T12:07:35.591Z,83.50
2022-09-09T12:10:33.841Z,83.60
2022-09-09T12:13:23.026Z,82.70
2022-09-09T12:15:52.851Z,80.70
2022-09-09T12:18:33.051Z,79.40
2022-09-09T12:21:38.771Z,77.50
2022-09-09T12:24:17.567Z,81.20
2022-09-09T12:26:54.895Z,76.90
2022-09-09T12:29:43.165Z,81.10
2022-09-09T12:32:19.627Z,77.60
2022-09-09T12:34:54.552Z,76.00
2022-09-09T12:37:36.763Z,76.50
2022-09-09T12:40:32.527Z,75.70
2022-09-09T12:43:02.336Z,75.30
2022-09-09T12:45:34.127Z,75.60
2022-09-09T12:48:05.773Z,75.10
2022-09-09T12:50:44.726Z,76.80
2022-09-09T12:53:25.682Z,77.50
2022-09-09T12:56:09.127Z,74.60
2022-09-09T12:58:38.373Z,72.70
2022-09-09T13:01:06.903Z,72.80
2022-09-09T13:03:43.848Z,64.80
2022-09-09T13:06:28.061Z,65.20
2022-09-09T13:08:58.270Z,62.20
2022-09-09T13:11:31.811Z,63.80
2022-09-09T13:13:59.709Z,62.40
2022-09-09T13:16:35.773Z,62.50
2022-09-09T13:19:17.149Z,62.60
2022-09-09T13:21:44.288Z,61.60
2022-09-09T13:24:23.652Z,61.20
2022-09-09T13:27:06.486Z,63.20
2022-09-09T13:29:33.685Z,60.90
2022-09-09T13:32:18.999Z,59.70
2022-09-09T13:34:55.991Z,59.40
2022-09-09T13:37:42.973Z,58.20
2022-09-09T13:40:21.006Z,59.20
2022-09-09T13:42:48.978Z,57.30
2022-09-09T13:45:21.656Z,57.40
2022-09-09T13:47:53.244Z,56.10
2022-09-09T13:50:22.260Z,57.20
2022-09-09T13:52:59.442Z,53.00
2022-09-09T13:55:30.729Z,54.70
2022-09-09T13:58:02.916Z,52.70
2022-09-09T14:00:35.190Z,53.00
2022-09-09T14:03:05.051Z,51.40
2022-09-09T14:05:34.839Z,50.80
2022-09-09T14:08:04.067Z,47.20
2022-09-09T14:10:30.971Z,45.80
2022-09-09T14:12:57.773Z,42.70
2022-09-09T14:15:24.566Z,42.10
2022-09-09T14:17:53.398Z,42.80
2022-09-09T14:20:20.510Z,42.20
2022-09-09T14:22:47.318Z,45.00
2022-09-09T14:25:14.574Z,47.30
2022-09-09T14:27:41.870Z,50.90
2022-09-09T14:30:09.351Z,44.30
2022-09-09T14:32:36.381Z,45.20
2022-09-09T14:35:03.417Z,47.40
2022-09-09T14:37:32.128Z,50.00
2022-09-09T14:39:59.481Z,51.80
2022-09-09T14:42:27.663Z,52.10
2022-09-09T14:44:54.652Z,52.50
2022-09-09T14:47:21.469Z,53.70
2022-09-09T14:49:50.803Z,54.10
2022-09-09T14:52:17.640Z,55.50
2022-09-09T14:54:44.409Z,57.80
2022-09-09T14:57:11.134Z,60.60
2022-09-09T14:59:37.843Z,65.00
2022-09-09T15:02:05.542Z,63.70
2022-09-09T15:04:32.528Z,64.00
2022-09-09T15:06:59.833Z,65.30
2022-09-09T15:09:26.658Z,65.00
2022-09-09T15:11:53.370Z,68.10
2022-09-09T15:14:23.896Z,69.30
2022-09-09T15:16:52.574Z,66.50
2022-09-09T15:19:19.399Z,68.10
2022-09-09T15:21:46.149Z,67.50
2022-09-09T15:24:14.670Z,70.20
2022-09-09T15:26:41.744Z,69.30
2022-09-09T15:29:09.299Z,63.40
2022-09-09T15:31:36.695Z,63.60
2022-09-09T15:34:06.550Z,62.90
2022-09-09T15:36:35.626Z,61.60
2022-09-09T15:39:04.627Z,62.80
2022-09-09T15:41:34.553Z,61.30
2022-09-09T15:44:01.768Z,60.90
2022-09-09T15:46:33.387Z,59.10
2022-09-09T15:49:22.933Z,53.20
2022-09-09T15:51:58.461Z,50.30
2022-09-09T15:54:26.651Z,50.50
2022-09-09T15:56:58.659Z,50.50
2022-09-09T15:59:28.751Z,52.30
2022-09-09T16:01:56.132Z,53.70
2022-09-09T16:04:24.608Z,55.90
2022-09-09T16:06:58.614Z,57.70
2022-09-09T16:09:25.787Z,60.50
2022-09-09T16:11:54.163Z,62.50
2022-09-09T16:14:20.876Z,62.10
2022-09-09T16:16:47.627Z,63.70
2022-09-09T16:19:14.347Z,65.10
2022-09-09T16:21:44.105Z,65.60
2022-09-09T16:24:13.180Z,62.40
2022-09-09T16:26:44.031Z,62.80
2022-09-09T16:29:10.769Z,63.30
2022-09-09T16:31:37.819Z,61.70
2022-09-09T16:34:04.761Z,61.10
2022-09-09T16:36:37.360Z,61.90
2022-09-09T16:39:07.269Z,63.00
2022-09-09T16:41:34.678Z,64.30
2022-09-09T16:44:04.139Z,64.60
2022-09-09T16:46:33.145Z,63.80
2022-09-09T16:49:01.593Z,64.00
2022-09-09T16:51:33.562Z,65.60
2022-09-09T16:54:02.997Z,65.90
2022-09-09T16:56:32.484Z,67.50
2022-09-09T16:59:01.111Z,69.00
2022-09-09T17:01:33.999Z,70.10
2022-09-09T17:04:02.611Z,71.20
2022-09-09T17:06:31.255Z,73.50
2022-09-09T17:09:00.028Z,72.80
2022-09-09T17:11:27.037Z,74.30
2022-09-09T17:13:55.620Z,76.50
2022-09-09T17:16:24.497Z,77.50
2022-09-09T17:18:52.601Z,81.90
2022-09-09T17:21:21.250Z,76.30
2022-09-09T17:23:48.348Z,75.40
2022-09-09T17:26:18.019Z,80.00
2022-09-09T17:28:46.580Z,82.00
2022-09-09T17:31:17.794Z,82.00
2022-09-09T17:33:47.352Z,83.00
2022-09-09T17:36:19.236Z,87.10
2022-09-09T17:38:46.435Z,87.60
2022-09-09T17:41:22.646Z,88.40
2022-09-09T17:43:50.402Z,86.90
2022-09-09T17:46:23.140Z,87.10
2022-09-09T17:48:51.903Z,92.10
2022-09-09T17:51:24.583Z,93.80
2022-09-09T17:53:52.881Z,97.10
2022-09-09T17:56:21.271Z,98.40
2022-09-09T17:58:50.753Z,99.20
2022-09-09T18:01:27.903Z,99.90
2022-09-09T18:03:57.544Z,99.90
2022-09-09T18:06:28.221Z,99.90
2022-09-09T18:08:57.665Z,99.90
2022-09-09T18:11:27.128Z,99.90
2022-09-09T18:14:00.528Z,99.90
2022-09-09T18:16:29.247Z,99.90
2022-09-09T18:18:58.475Z,99.90
2022-09-09T18:21:29.340Z,99.90
2022-09-09T18:23:56.082Z,99.90
2022-09-09T18:26:25.889Z,99.90
2022-09-09T18:28:54.880Z,99.90
2022-09-09T18:31:24.200Z,99.90
2022-09-09T18:33:53.306Z,99.90
2022-09-09T18:36:22.883Z,99.90
2022-09-09T18:38:50.493Z,99.90
2022-09-09T18:41:25.626Z,99.90
2022-09-09T18:43:55.345Z,99.90
2022-09-09T18:46:23.721Z,99.90
2022-09-09T18:48:51.697Z,99.90
2022-09-09T18:51:20.927Z,99.90
2022-09-09T18:53:52.827Z,99.90
2022-09-09T18:56:19.743Z,99.90
2022-09-09T18:58:47.752Z,99.90
2022-09-09T19:01:15.706Z,99.90
2022-09-09T19:03:42.495Z,99.90
2022-09-09T19:06:18.942Z,99.90
2022-09-09T19:08:48.512Z,99.90
2022-09-09T19:11:22.693Z,98.00
2022-09-09T19:13:56.765Z,96.40
2022-09-09T19:16:25.340Z,96.20
2022-09-09T19:18:52.686Z,97.10
2022-09-09T19:21:25.337Z,96.10
2022-09-09T19:23:59.987Z,95.00
2022-09-09T19:26:32.319Z,94.10
2022-09-09T19:28:59.991Z,94.20
2022-09-09T19:31:31.238Z,94.40
2022-09-09T19:33:58.180Z,93.90
2022-09-09T19:36:29.573Z,93.90
2022-09-09T19:38:56.690Z,95.30
2022-09-09T19:41:26.065Z,94.60
2022-09-09T19:43:57.400Z,97.10
2022-09-09T19:46:24.185Z,98.60
2022-09-09T19:48:50.941Z,99.80
2022-09-09T19:51:22.323Z,99.90
2022-09-09T19:53:57.774Z,99.90
2022-09-09T19:56:27.253Z,99.90
2022-09-09T19:58:54.877Z,99.90
2022-09-09T20:01:30.961Z,99.90
2022-09-09T20:03:59.757Z,99.90
2022-09-09T20:06:29.072Z,99.90
2022-09-09T20:08:57.260Z,99.90
2022-09-09T20:11:25.654Z,99.90
2022-09-09T20:13:52.763Z,99.90
2022-09-09T20:16:21.971Z,99.90
2022-09-09T20:18:52.574Z,99.90
2022-09-09T20:21:28.158Z,99.90
2022-09-09T20:23:55.956Z,99.90
2022-09-09T20:26:26.130Z,99.90
2022-09-09T20:28:54.532Z,99.90
2022-09-09T20:31:24.882Z,99.90
2022-09-09T20:33:52.671Z,99.90
2022-09-09T20:36:31.085Z,99.90
2022-09-09T20:39:03.403Z,99.90
2022-09-09T20:41:32.154Z,99.90
2022-09-09T20:44:05.172Z,99.90
2022-09-09T20:46:39.954Z,99.90
2022-09-09T20:49:11.475Z,99.90
2022-09-09T20:51:38.823Z,99.90
2022-09-09T20:54:14.010Z,99.90
2022-09-09T20:56:42.758Z,99.90
2022-09-09T20:59:15.530Z,99.90
2022-09-09T21:01:42.663Z,99.90
2022-09-09T21:04:09.797Z,99.90
2022-09-09T21:06:37.150Z,99.90
2022-09-09T21:09:04.495Z,99.90
2022-09-09T21:11:34.971Z,99.90
2022-09-09T21:14:02.903Z,99.90
2022-09-09T21:16:29.752Z,99.90
2022-09-09T21:18:56.503Z,99.90
2022-09-09T21:21:23.197Z,99.90
2022-09-09T21:23:50.571Z,99.90
2022-09-09T21:26:19.577Z,99.90
2022-09-09T21:28:46.428Z,99.90
2022-09-09T21:31:15.246Z,99.90
2022-09-09T21:33:43.003Z,99.90
2022-09-09T21:36:12.221Z,99.90
2022-09-09T21:38:42.710Z,99.90
2022-09-09T21:41:14.432Z,99.90
2022-09-09T21:43:42.936Z,99.90
2022-09-09T21:46:11.665Z,99.90
2022-09-09T21:48:38.792Z,99.90
2022-09-09T21:51:08.180Z,99.90
2022-09-09T21:53:35.468Z,99.90
2022-09-09T21:56:07.984Z,99.90
2022-09-09T21:58:35.426Z,99.90
2022-09-09T22:01:02.587Z,99.90
2022-09-09T22:03:29.278Z,99.90
2022-09-09T22:05:56.083Z,99.90
2022-09-09T22:08:22.849Z,99.90
2022-09-09T22:10:49.705Z,99.90
2022-09-09T22:13:17.462Z,99.90
2022-09-09T22:15:45.772Z,99.90
2022-09-09T22:18:15.997Z,99.90
2022-09-09T22:20:45.054Z,99.90
2022-09-09T22:23:13.346Z,99.90
2022-09-09T22:25:40.925Z,99.90
2022-09-09T22:28:09.220Z,99.90
2022-09-09T22:30:36.245Z,99.90
2022-09-09T22:33:02.990Z,99.90
2022-09-09T22:35:29.805Z,99.90
2022-09-09T22:37:57.384Z,99.90
2022-09-09T22:40:24.144Z,99.90
2022-09-09T22:42:52.896Z,99.90
2022-09-09T22:45:21.784Z,99.90
2022-09-09T22:47:48.738Z,99.90
2022-09-09T22:50:15.529Z,99.90
2022-09-09T22:52:42.367Z,99.90
2022-09-09T22:55:09.427Z,99.90
2022-09-09T22:57:36.532Z,99.90
2022-09-09T23:00:08.877Z,99.90
2022-09-09T23:02:40.720Z,99.90
2022-09-09T23:05:11.086Z,99.90
2022-09-09T23:07:38.175Z,99.90
2022-09-09T23:10:06.776Z,99.90
2022-09-09T23:12:34.120Z,99.90
2022-09-09T23:15:00.961Z,99.90
2022-09-09T23:17:27.783Z,99.90
2022-09-09T23:19:56.350Z,99.90
2022-09-09T23:22:24.370Z,99.90
2022-09-09T23:24:53.689Z,99.90
2022-09-09T23:27:21.502Z,99.90
2022-09-09T23:29:48.809Z,99.90
2022-09-09T23:32:15.841Z,99.90
2022-09-09T23:34:42.596Z,99.90
2022-09-09T23:37:11.152Z,99.90
2022-09-09T23:39:40.305Z,99.90
2022-09-09T23:42:08.385Z,99.90
2022-09-09T23:44:36.800Z,99.90
2022-09-09T23:47:04.869Z,99.90
2022-09-09T23:49:33.617Z,99.90
2022-09-09T23:52:03.590Z,99.90
2022-09-09T23:54:30.852Z,99.90
2022-09-09T23:56:57.569Z,99.90
2022-09-09T23:59:24.419Z,99.90
